sensor_id;sensor_type;location;lat;lon;timestamp;P1;durP1;ratioP1;P2;durP2;ratioP2
6077;SDS011;3067;49.470;10.394;2022-07-01T00:00:20;6.60;;;5.33;;
6077;SDS011;3067;49.470;10.394;2022-07-01T00:02:47;6.23;;;5.67;;
6077;SDS011;3067;49.470;10.394;2022-07-01T00:05:14;7.20;;;5.53;;
6077;SDS011;3067;49.470;10.394;2022-07-01T00:07:42;5.90;;;5.50;;
6077;SDS011;3067;49.470;10.394;2022-07-01T00:10:09;5.73;;;5.20;;
6077;SDS011;3067;49.470;10.394;2022-07-01T00:12:36;5.90;;;5.30;;
6077;SDS011;3067;49.470;10.394;2022-07-01T00:15:05;6.13;;;5.23;;
6077;SDS011;3067;49.470;10.394;2022-07-01T00:17:34;6.73;;;5.07;;
6077;SDS011;3067;49.470;10.394;2022-07-01T00:20:01;7.10;;;5.17;;
6077;SDS011;3067;49.470;10.394;2022-07-01T00:22:29;5.60;;;5.20;;
6077;SDS011;3067;49.470;10.394;2022-07-01T00:24:56;5.33;;;4.57;;
6077;SDS011;3067;49.470;10.394;2022-07-01T00:27:23;8.53;;;4.70;;
6077;SDS011;3067;49.470;10.394;2022-07-01T00:29:51;9.33;;;4.30;;
6077;SDS011;3067;49.470;10.394;2022-07-01T00:32:19;4.33;;;4.03;;
6077;SDS011;3067;49.470;10.394;2022-07-01T00:34:47;5.40;;;4.17;;
6077;SDS011;3067;49.470;10.394;2022-07-01T00:37:14;5.80;;;3.60;;
6077;SDS011;3067;49.470;10.394;2022-07-01T00:39:41;4.30;;;3.37;;
6077;SDS011;3067;49.470;10.394;2022-07-01T00:42:08;3.20;;;3.00;;
6077;SDS011;3067;49.470;10.394;2022-07-01T00:44:36;3.40;;;3.10;;
6077;SDS011;3067;49.470;10.394;2022-07-01T00:47:07;2.80;;;2.70;;
6077;SDS011;3067;49.470;10.394;2022-07-01T00:49:36;2.90;;;2.70;;
6077;SDS011;3067;49.470;10.394;2022-07-01T00:52:04;7.00;;;2.87;;
6077;SDS011;3067;49.470;10.394;2022-07-01T00:54:31;3.00;;;2.90;;
6077;SDS011;3067;49.470;10.394;2022-07-01T00:57:01;3.43;;;3.13;;
6077;SDS011;3067;49.470;10.394;2022-07-01T00:59:32;3.43;;;3.27;;
6077;SDS011;3067;49.470;10.394;2022-07-01T01:02:00;3.60;;;3.40;;
6077;SDS011;3067;49.470;10.394;2022-07-01T01:04:27;4.10;;;3.77;;
6077;SDS011;3067;49.470;10.394;2022-07-01T01:06:57;7.97;;;4.40;;
6077;SDS011;3067;49.470;10.394;2022-07-01T01:09:24;9.47;;;4.50;;
6077;SDS011;3067;49.470;10.394;2022-07-01T01:11:51;12.80;;;4.40;;
6077;SDS011;3067;49.470;10.394;2022-07-01T01:14:18;4.40;;;4.10;;
6077;SDS011;3067;49.470;10.394;2022-07-01T01:16:46;8.30;;;4.37;;
6077;SDS011;3067;49.470;10.394;2022-07-01T01:19:13;4.27;;;4.07;;
6077;SDS011;3067;49.470;10.394;2022-07-01T01:21:42;7.10;;;4.60;;
6077;SDS011;3067;49.470;10.394;2022-07-01T01:24:09;5.40;;;5.00;;
6077;SDS011;3067;49.470;10.394;2022-07-01T01:26:37;4.60;;;4.30;;
6077;SDS011;3067;49.470;10.394;2022-07-01T01:29:04;5.70;;;5.20;;
6077;SDS011;3067;49.470;10.394;2022-07-01T01:31:33;5.60;;;5.10;;
6077;SDS011;3067;49.470;10.394;2022-07-01T01:34:01;5.40;;;5.00;;
6077;SDS011;3067;49.470;10.394;2022-07-01T01:36:28;5.70;;;5.20;;
6077;SDS011;3067;49.470;10.394;2022-07-01T01:38:57;6.70;;;5.53;;
6077;SDS011;3067;49.470;10.394;2022-07-01T01:41:27;7.03;;;4.83;;
6077;SDS011;3067;49.470;10.394;2022-07-01T01:43:54;5.67;;;5.27;;
6077;SDS011;3067;49.470;10.394;2022-07-01T01:46:21;5.50;;;5.10;;
6077;SDS011;3067;49.470;10.394;2022-07-01T01:48:48;6.03;;;5.63;;
6077;SDS011;3067;49.470;10.394;2022-07-01T01:51:16;7.00;;;6.30;;
6077;SDS011;3067;49.470;10.394;2022-07-01T01:53:44;6.20;;;5.17;;
6077;SDS011;3067;49.470;10.394;2022-07-01T01:56:13;5.30;;;4.90;;
6077;SDS011;3067;49.470;10.394;2022-07-01T01:58:40;5.20;;;4.90;;
6077;SDS011;3067;49.470;10.394;2022-07-01T02:01:09;5.80;;;5.27;;
6077;SDS011;3067;49.470;10.394;2022-07-01T02:03:37;5.03;;;4.73;;
6077;SDS011;3067;49.470;10.394;2022-07-01T02:06:05;4.30;;;4.10;;
6077;SDS011;3067;49.470;10.394;2022-07-01T02:08:32;3.83;;;3.63;;
6077;SDS011;3067;49.470;10.394;2022-07-01T02:10:59;4.20;;;3.90;;
6077;SDS011;3067;49.470;10.394;2022-07-01T02:13:29;3.90;;;3.77;;
6077;SDS011;3067;49.470;10.394;2022-07-01T02:15:56;4.10;;;3.90;;
6077;SDS011;3067;49.470;10.394;2022-07-01T02:18:24;4.50;;;4.20;;
6077;SDS011;3067;49.470;10.394;2022-07-01T02:20:51;4.00;;;3.80;;
6077;SDS011;3067;49.470;10.394;2022-07-01T02:23:19;3.77;;;3.57;;
6077;SDS011;3067;49.470;10.394;2022-07-01T02:25:47;3.63;;;3.33;;
6077;SDS011;3067;49.470;10.394;2022-07-01T02:28:14;3.17;;;3.07;;
6077;SDS011;3067;49.470;10.394;2022-07-01T02:30:43;3.30;;;3.07;;
6077;SDS011;3067;49.470;10.394;2022-07-01T02:33:10;3.50;;;3.23;;
6077;SDS011;3067;49.470;10.394;2022-07-01T02:35:39;3.00;;;2.90;;
6077;SDS011;3067;49.470;10.394;2022-07-01T02:38:07;3.40;;;3.20;;
6077;SDS011;3067;49.470;10.394;2022-07-01T02:40:34;3.37;;;3.27;;
6077;SDS011;3067;49.470;10.394;2022-07-01T02:43:03;3.50;;;3.23;;
6077;SDS011;3067;49.470;10.394;2022-07-01T02:45:30;3.30;;;3.20;;
6077;SDS011;3067;49.470;10.394;2022-07-01T02:47:59;3.43;;;3.23;;
6077;SDS011;3067;49.470;10.394;2022-07-01T02:50:27;3.40;;;3.20;;
6077;SDS011;3067;49.470;10.394;2022-07-01T02:52:55;3.10;;;3.00;;
6077;SDS011;3067;49.470;10.394;2022-07-01T02:55:22;3.30;;;3.10;;
6077;SDS011;3067;49.470;10.394;2022-07-01T02:57:50;4.60;;;3.27;;
6077;SDS011;3067;49.470;10.394;2022-07-01T03:00:18;2.60;;;2.50;;
6077;SDS011;3067;49.470;10.394;2022-07-01T03:02:47;2.90;;;2.80;;
6077;SDS011;3067;49.470;10.394;2022-07-01T03:05:16;13.90;;;3.10;;
6077;SDS011;3067;49.470;10.394;2022-07-01T03:07:43;3.10;;;2.90;;
6077;SDS011;3067;49.470;10.394;2022-07-01T03:10:10;5.43;;;2.80;;
6077;SDS011;3067;49.470;10.394;2022-07-01T03:12:38;3.20;;;3.10;;
6077;SDS011;3067;49.470;10.394;2022-07-01T03:15:06;3.20;;;3.00;;
6077;SDS011;3067;49.470;10.394;2022-07-01T03:17:34;2.90;;;2.80;;
6077;SDS011;3067;49.470;10.394;2022-07-01T03:20:02;3.23;;;3.03;;
6077;SDS011;3067;49.470;10.394;2022-07-01T03:22:31;3.00;;;2.90;;
6077;SDS011;3067;49.470;10.394;2022-07-01T03:24:59;2.60;;;2.50;;
6077;SDS011;3067;49.470;10.394;2022-07-01T03:27:28;3.13;;;3.00;;
6077;SDS011;3067;49.470;10.394;2022-07-01T03:29:55;3.40;;;3.30;;
6077;SDS011;3067;49.470;10.394;2022-07-01T03:32:23;4.63;;;2.97;;
6077;SDS011;3067;49.470;10.394;2022-07-01T03:34:51;2.90;;;2.80;;
6077;SDS011;3067;49.470;10.394;2022-07-01T03:37:18;3.10;;;3.00;;
6077;SDS011;3067;49.470;10.394;2022-07-01T03:39:47;3.13;;;2.93;;
6077;SDS011;3067;49.470;10.394;2022-07-01T03:42:15;3.67;;;3.47;;
6077;SDS011;3067;49.470;10.394;2022-07-01T03:44:43;2.77;;;2.50;;
6077;SDS011;3067;49.470;10.394;2022-07-01T03:47:10;2.57;;;2.47;;
6077;SDS011;3067;49.470;10.394;2022-07-01T03:49:37;2.70;;;2.50;;
6077;SDS011;3067;49.470;10.394;2022-07-01T03:52:05;2.40;;;2.27;;
6077;SDS011;3067;49.470;10.394;2022-07-01T03:54:32;2.30;;;2.20;;
6077;SDS011;3067;49.470;10.394;2022-07-01T03:57:04;4.67;;;2.30;;
6077;SDS011;3067;49.470;10.394;2022-07-01T03:59:33;2.57;;;2.37;;
6077;SDS011;3067;49.470;10.394;2022-07-01T04:02:01;2.60;;;2.50;;
6077;SDS011;3067;49.470;10.394;2022-07-01T04:04:29;5.60;;;2.50;;
6077;SDS011;3067;49.470;10.394;2022-07-01T04:06:57;2.57;;;2.47;;
6077;SDS011;3067;49.470;10.394;2022-07-01T04:09:25;2.77;;;2.67;;
6077;SDS011;3067;49.470;10.394;2022-07-01T04:11:52;2.50;;;2.40;;
6077;SDS011;3067;49.470;10.394;2022-07-01T04:14:21;2.60;;;2.50;;
6077;SDS011;3067;49.470;10.394;2022-07-01T04:16:49;2.60;;;2.40;;
6077;SDS011;3067;49.470;10.394;2022-07-01T04:19:17;3.80;;;2.30;;
6077;SDS011;3067;49.470;10.394;2022-07-01T04:21:44;2.70;;;2.60;;
6077;SDS011;3067;49.470;10.394;2022-07-01T04:24:29;2.40;;;2.30;;
6077;SDS011;3067;49.470;10.394;2022-07-01T04:26:58;2.70;;;2.60;;
6077;SDS011;3067;49.470;10.394;2022-07-01T04:29:27;3.00;;;2.80;;
6077;SDS011;3067;49.470;10.394;2022-07-01T04:31:55;2.90;;;2.80;;
6077;SDS011;3067;49.470;10.394;2022-07-01T04:34:23;3.00;;;2.80;;
6077;SDS011;3067;49.470;10.394;2022-07-01T04:36:50;2.83;;;2.73;;
6077;SDS011;3067;49.470;10.394;2022-07-01T04:39:17;2.90;;;2.60;;
6077;SDS011;3067;49.470;10.394;2022-07-01T04:41:45;3.80;;;3.17;;
6077;SDS011;3067;49.470;10.394;2022-07-01T04:44:29;4.00;;;2.77;;
6077;SDS011;3067;49.470;10.394;2022-07-01T04:46:57;3.10;;;2.90;;
6077;SDS011;3067;49.470;10.394;2022-07-01T04:49:25;2.97;;;2.87;;
6077;SDS011;3067;49.470;10.394;2022-07-01T04:51:52;2.80;;;2.70;;
6077;SDS011;3067;49.470;10.394;2022-07-01T04:54:19;2.43;;;2.33;;
6077;SDS011;3067;49.470;10.394;2022-07-01T04:56:47;2.70;;;2.50;;
6077;SDS011;3067;49.470;10.394;2022-07-01T04:59:15;2.90;;;2.80;;
6077;SDS011;3067;49.470;10.394;2022-07-01T05:01:43;2.50;;;2.40;;
6077;SDS011;3067;49.470;10.394;2022-07-01T05:04:14;3.27;;;2.53;;
6077;SDS011;3067;49.470;10.394;2022-07-01T05:06:41;2.50;;;2.30;;
6077;SDS011;3067;49.470;10.394;2022-07-01T05:09:09;2.90;;;2.80;;
6077;SDS011;3067;49.470;10.394;2022-07-01T05:11:36;2.57;;;2.47;;
6077;SDS011;3067;49.470;10.394;2022-07-01T05:14:04;4.33;;;2.60;;
6077;SDS011;3067;49.470;10.394;2022-07-01T05:16:31;6.73;;;3.30;;
6077;SDS011;3067;49.470;10.394;2022-07-01T05:19:00;3.60;;;3.30;;
6077;SDS011;3067;49.470;10.394;2022-07-01T05:21:45;3.80;;;3.50;;
6077;SDS011;3067;49.470;10.394;2022-07-01T05:24:25;4.20;;;4.00;;
6077;SDS011;3067;49.470;10.394;2022-07-01T05:26:54;3.90;;;3.70;;
6077;SDS011;3067;49.470;10.394;2022-07-01T05:29:21;4.20;;;3.90;;
6077;SDS011;3067;49.470;10.394;2022-07-01T05:31:49;4.43;;;4.20;;
6077;SDS011;3067;49.470;10.394;2022-07-01T05:34:17;4.80;;;4.47;;
6077;SDS011;3067;49.470;10.394;2022-07-01T05:36:45;7.67;;;4.87;;
6077;SDS011;3067;49.470;10.394;2022-07-01T05:39:12;5.20;;;4.70;;
6077;SDS011;3067;49.470;10.394;2022-07-01T05:41:39;5.30;;;4.60;;
6077;SDS011;3067;49.470;10.394;2022-07-01T05:44:07;5.30;;;4.97;;
6077;SDS011;3067;49.470;10.394;2022-07-01T05:46:34;7.00;;;5.50;;
6077;SDS011;3067;49.470;10.394;2022-07-01T05:49:01;4.97;;;4.77;;
6077;SDS011;3067;49.470;10.394;2022-07-01T05:51:30;6.57;;;5.97;;
6077;SDS011;3067;49.470;10.394;2022-07-01T05:53:57;6.13;;;5.63;;
6077;SDS011;3067;49.470;10.394;2022-07-01T05:56:25;6.43;;;5.93;;
6077;SDS011;3067;49.470;10.394;2022-07-01T05:58:53;7.37;;;6.87;;
6077;SDS011;3067;49.470;10.394;2022-07-01T06:01:20;5.50;;;5.23;;
6077;SDS011;3067;49.470;10.394;2022-07-01T06:03:48;12.77;;;5.53;;
6077;SDS011;3067;49.470;10.394;2022-07-01T06:06:15;5.77;;;5.37;;
6077;SDS011;3067;49.470;10.394;2022-07-01T06:08:44;7.30;;;5.30;;
6077;SDS011;3067;49.470;10.394;2022-07-01T06:11:12;6.43;;;5.93;;
6077;SDS011;3067;49.470;10.394;2022-07-01T06:13:40;6.60;;;6.10;;
6077;SDS011;3067;49.470;10.394;2022-07-01T06:16:07;6.00;;;5.60;;
6077;SDS011;3067;49.470;10.394;2022-07-01T06:18:34;4.93;;;4.47;;
6077;SDS011;3067;49.470;10.394;2022-07-01T06:21:02;5.13;;;4.20;;
6077;SDS011;3067;49.470;10.394;2022-07-01T06:23:29;3.10;;;3.00;;
6077;SDS011;3067;49.470;10.394;2022-07-01T06:25:58;2.87;;;2.77;;
6077;SDS011;3067;49.470;10.394;2022-07-01T06:28:25;2.93;;;2.83;;
6077;SDS011;3067;49.470;10.394;2022-07-01T06:30:55;3.20;;;3.10;;
6077;SDS011;3067;49.470;10.394;2022-07-01T06:33:22;3.73;;;3.43;;
6077;SDS011;3067;49.470;10.394;2022-07-01T06:35:50;4.87;;;4.27;;
6077;SDS011;3067;49.470;10.394;2022-07-01T06:38:17;3.80;;;3.70;;
6077;SDS011;3067;49.470;10.394;2022-07-01T06:40:45;4.60;;;4.17;;
6077;SDS011;3067;49.470;10.394;2022-07-01T06:43:35;6.70;;;4.50;;
6077;SDS011;3067;49.470;10.394;2022-07-01T06:46:02;4.00;;;3.80;;
6077;SDS011;3067;49.470;10.394;2022-07-01T06:48:31;4.13;;;3.97;;
6077;SDS011;3067;49.470;10.394;2022-07-01T06:50:58;4.13;;;3.90;;
6077;SDS011;3067;49.470;10.394;2022-07-01T06:53:26;4.47;;;4.07;;
6077;SDS011;3067;49.470;10.394;2022-07-01T06:55:53;4.00;;;3.80;;
6077;SDS011;3067;49.470;10.394;2022-07-01T06:58:20;4.33;;;4.07;;
6077;SDS011;3067;49.470;10.394;2022-07-01T07:00:49;5.23;;;4.50;;
6077;SDS011;3067;49.470;10.394;2022-07-01T07:03:16;4.20;;;4.00;;
6077;SDS011;3067;49.470;10.394;2022-07-01T07:05:43;4.27;;;3.97;;
6077;SDS011;3067;49.470;10.394;2022-07-01T07:08:11;4.33;;;4.03;;
6077;SDS011;3067;49.470;10.394;2022-07-01T07:10:38;4.03;;;3.63;;
6077;SDS011;3067;49.470;10.394;2022-07-01T07:13:05;4.30;;;4.10;;
6077;SDS011;3067;49.470;10.394;2022-07-01T07:15:33;4.03;;;3.73;;
6077;SDS011;3067;49.470;10.394;2022-07-01T07:18:01;4.07;;;3.80;;
6077;SDS011;3067;49.470;10.394;2022-07-01T07:20:29;4.40;;;4.20;;
6077;SDS011;3067;49.470;10.394;2022-07-01T07:22:56;4.70;;;4.40;;
6077;SDS011;3067;49.470;10.394;2022-07-01T07:25:23;4.77;;;4.27;;
6077;SDS011;3067;49.470;10.394;2022-07-01T07:27:51;4.50;;;4.20;;
6077;SDS011;3067;49.470;10.394;2022-07-01T07:30:18;4.77;;;4.57;;
6077;SDS011;3067;49.470;10.394;2022-07-01T07:32:46;4.60;;;4.30;;
6077;SDS011;3067;49.470;10.394;2022-07-01T07:35:15;4.90;;;4.50;;
6077;SDS011;3067;49.470;10.394;2022-07-01T07:37:42;4.40;;;4.20;;
6077;SDS011;3067;49.470;10.394;2022-07-01T07:40:11;4.40;;;4.20;;
6077;SDS011;3067;49.470;10.394;2022-07-01T07:42:43;4.80;;;4.60;;
6077;SDS011;3067;49.470;10.394;2022-07-01T07:45:10;4.33;;;4.10;;
6077;SDS011;3067;49.470;10.394;2022-07-01T07:47:41;3.90;;;3.80;;
6077;SDS011;3067;49.470;10.394;2022-07-01T07:50:09;3.93;;;3.73;;
6077;SDS011;3067;49.470;10.394;2022-07-01T07:52:38;3.50;;;3.40;;
6077;SDS011;3067;49.470;10.394;2022-07-01T07:55:06;4.30;;;3.63;;
6077;SDS011;3067;49.470;10.394;2022-07-01T07:57:35;3.43;;;3.23;;
6077;SDS011;3067;49.470;10.394;2022-07-01T08:00:03;8.53;;;3.90;;
6077;SDS011;3067;49.470;10.394;2022-07-01T08:02:30;3.83;;;3.60;;
6077;SDS011;3067;49.470;10.394;2022-07-01T08:04:57;3.93;;;3.83;;
6077;SDS011;3067;49.470;10.394;2022-07-01T08:07:25;4.10;;;3.90;;
6077;SDS011;3067;49.470;10.394;2022-07-01T08:09:53;5.00;;;4.70;;
6077;SDS011;3067;49.470;10.394;2022-07-01T08:12:21;4.70;;;4.40;;
6077;SDS011;3067;49.470;10.394;2022-07-01T08:14:51;7.33;;;4.30;;
6077;SDS011;3067;49.470;10.394;2022-07-01T08:17:18;4.40;;;4.13;;
6077;SDS011;3067;49.470;10.394;2022-07-01T08:19:46;4.50;;;4.20;;
6077;SDS011;3067;49.470;10.394;2022-07-01T08:22:13;4.10;;;3.90;;
6077;SDS011;3067;49.470;10.394;2022-07-01T08:24:40;3.93;;;3.60;;
6077;SDS011;3067;49.470;10.394;2022-07-01T08:27:09;4.50;;;4.20;;
6077;SDS011;3067;49.470;10.394;2022-07-01T08:29:37;3.90;;;3.60;;
6077;SDS011;3067;49.470;10.394;2022-07-01T08:32:05;3.77;;;3.50;;
6077;SDS011;3067;49.470;10.394;2022-07-01T08:34:32;3.80;;;3.60;;
6077;SDS011;3067;49.470;10.394;2022-07-01T08:37:00;3.53;;;3.23;;
6077;SDS011;3067;49.470;10.394;2022-07-01T08:39:28;3.60;;;3.50;;
6077;SDS011;3067;49.470;10.394;2022-07-01T08:41:55;3.40;;;3.30;;
6077;SDS011;3067;49.470;10.394;2022-07-01T08:44:24;3.67;;;3.37;;
6077;SDS011;3067;49.470;10.394;2022-07-01T08:46:52;3.80;;;3.50;;
6077;SDS011;3067;49.470;10.394;2022-07-01T08:49:19;4.23;;;3.93;;
6077;SDS011;3067;49.470;10.394;2022-07-01T08:51:48;3.93;;;3.80;;
6077;SDS011;3067;49.470;10.394;2022-07-01T08:54:15;3.60;;;3.40;;
6077;SDS011;3067;49.470;10.394;2022-07-01T08:56:43;3.30;;;3.20;;
6077;SDS011;3067;49.470;10.394;2022-07-01T08:59:11;3.53;;;3.23;;
6077;SDS011;3067;49.470;10.394;2022-07-01T09:01:40;3.43;;;3.33;;
6077;SDS011;3067;49.470;10.394;2022-07-01T09:04:14;3.67;;;3.37;;
6077;SDS011;3067;49.470;10.394;2022-07-01T09:06:42;3.40;;;3.20;;
6077;SDS011;3067;49.470;10.394;2022-07-01T09:09:10;3.37;;;3.07;;
6077;SDS011;3067;49.470;10.394;2022-07-01T09:11:43;3.30;;;3.00;;
6077;SDS011;3067;49.470;10.394;2022-07-01T09:14:11;2.80;;;2.70;;
6077;SDS011;3067;49.470;10.394;2022-07-01T09:16:43;3.00;;;2.80;;
6077;SDS011;3067;49.470;10.394;2022-07-01T09:19:11;2.83;;;2.63;;
6077;SDS011;3067;49.470;10.394;2022-07-01T09:21:39;2.33;;;2.23;;
6077;SDS011;3067;49.470;10.394;2022-07-01T09:24:22;2.47;;;2.37;;
6077;SDS011;3067;49.470;10.394;2022-07-01T09:26:51;2.20;;;2.20;;
6077;SDS011;3067;49.470;10.394;2022-07-01T09:29:18;2.10;;;2.00;;
6077;SDS011;3067;49.470;10.394;2022-07-01T09:31:48;2.00;;;2.00;;
6077;SDS011;3067;49.470;10.394;2022-07-01T09:34:16;2.30;;;2.20;;
6077;SDS011;3067;49.470;10.394;2022-07-01T09:36:50;2.97;;;2.63;;
6077;SDS011;3067;49.470;10.394;2022-07-01T09:39:18;2.87;;;2.67;;
6077;SDS011;3067;49.470;10.394;2022-07-01T09:41:45;2.77;;;2.67;;
6077;SDS011;3067;49.470;10.394;2022-07-01T09:44:13;2.30;;;2.20;;
6077;SDS011;3067;49.470;10.394;2022-07-01T09:46:52;2.93;;;2.73;;
6077;SDS011;3067;49.470;10.394;2022-07-01T09:49:19;3.17;;;2.60;;
6077;SDS011;3067;49.470;10.394;2022-07-01T09:51:47;2.73;;;2.53;;
6077;SDS011;3067;49.470;10.394;2022-07-01T09:54:15;2.70;;;2.60;;
6077;SDS011;3067;49.470;10.394;2022-07-01T09:56:43;2.80;;;2.60;;
6077;SDS011;3067;49.470;10.394;2022-07-01T09:59:10;2.50;;;2.40;;
6077;SDS011;3067;49.470;10.394;2022-07-01T10:01:38;2.73;;;2.63;;
6077;SDS011;3067;49.470;10.394;2022-07-01T10:04:07;2.80;;;2.47;;
6077;SDS011;3067;49.470;10.394;2022-07-01T10:09:29;2.73;;;2.63;;
6077;SDS011;3067;49.470;10.394;2022-07-01T10:14:47;2.50;;;2.33;;
6077;SDS011;3067;49.470;10.394;2022-07-01T10:17:25;2.63;;;2.53;;
6077;SDS011;3067;49.470;10.394;2022-07-01T10:19:55;2.97;;;2.70;;
6077;SDS011;3067;49.470;10.394;2022-07-01T10:22:27;5.33;;;2.90;;
6077;SDS011;3067;49.470;10.394;2022-07-01T10:24:54;3.30;;;3.10;;
6077;SDS011;3067;49.470;10.394;2022-07-01T10:27:22;3.40;;;3.30;;
6077;SDS011;3067;49.470;10.394;2022-07-01T10:30:08;3.17;;;2.97;;
6077;SDS011;3067;49.470;10.394;2022-07-01T10:32:41;3.27;;;3.00;;
6077;SDS011;3067;49.470;10.394;2022-07-01T10:35:10;2.80;;;2.70;;
6077;SDS011;3067;49.470;10.394;2022-07-01T10:37:40;3.10;;;2.90;;
6077;SDS011;3067;49.470;10.394;2022-07-01T10:43:05;3.00;;;2.90;;
6077;SDS011;3067;49.470;10.394;2022-07-01T10:45:40;3.10;;;3.00;;
6077;SDS011;3067;49.470;10.394;2022-07-01T10:48:17;3.20;;;2.83;;
6077;SDS011;3067;49.470;10.394;2022-07-01T10:50:46;3.23;;;2.70;;
6077;SDS011;3067;49.470;10.394;2022-07-01T10:53:14;2.90;;;2.80;;
6077;SDS011;3067;49.470;10.394;2022-07-01T10:55:44;3.43;;;2.80;;
6077;SDS011;3067;49.470;10.394;2022-07-01T10:58:12;2.90;;;2.80;;
6077;SDS011;3067;49.470;10.394;2022-07-01T11:00:42;3.30;;;3.20;;
6077;SDS011;3067;49.470;10.394;2022-07-01T11:03:19;3.23;;;3.03;;
6077;SDS011;3067;49.470;10.394;2022-07-01T11:05:49;3.23;;;2.97;;
6077;SDS011;3067;49.470;10.394;2022-07-01T11:08:17;3.23;;;2.70;;
6077;SDS011;3067;49.470;10.394;2022-07-01T11:10:48;4.07;;;3.57;;
6077;SDS011;3067;49.470;10.394;2022-07-01T11:13:16;3.00;;;2.90;;
6077;SDS011;3067;49.470;10.394;2022-07-01T11:15:44;2.97;;;2.87;;
6077;SDS011;3067;49.470;10.394;2022-07-01T11:18:12;2.80;;;2.60;;
6077;SDS011;3067;49.470;10.394;2022-07-01T11:20:42;3.00;;;2.80;;
6077;SDS011;3067;49.470;10.394;2022-07-01T11:23:11;3.00;;;2.80;;
6077;SDS011;3067;49.470;10.394;2022-07-01T11:25:38;2.40;;;2.30;;
6077;SDS011;3067;49.470;10.394;2022-07-01T11:28:06;2.60;;;2.50;;
6077;SDS011;3067;49.470;10.394;2022-07-01T11:30:33;2.40;;;2.30;;
6077;SDS011;3067;49.470;10.394;2022-07-01T11:33:01;2.50;;;2.40;;
6077;SDS011;3067;49.470;10.394;2022-07-01T11:35:29;2.87;;;2.67;;
6077;SDS011;3067;49.470;10.394;2022-07-01T11:38:15;3.97;;;2.50;;
6077;SDS011;3067;49.470;10.394;2022-07-01T11:41:02;2.90;;;2.70;;
6077;SDS011;3067;49.470;10.394;2022-07-01T11:43:30;2.60;;;2.30;;
6077;SDS011;3067;49.470;10.394;2022-07-01T11:45:59;5.83;;;2.30;;
6077;SDS011;3067;49.470;10.394;2022-07-01T11:48:38;2.30;;;2.20;;
6077;SDS011;3067;49.470;10.394;2022-07-01T11:51:07;4.47;;;2.93;;
6077;SDS011;3067;49.470;10.394;2022-07-01T11:53:36;3.37;;;3.17;;
6077;SDS011;3067;49.470;10.394;2022-07-01T11:56:03;3.00;;;2.90;;
6077;SDS011;3067;49.470;10.394;2022-07-01T11:58:41;3.63;;;3.33;;
6077;SDS011;3067;49.470;10.394;2022-07-01T12:01:09;4.00;;;3.70;;
6077;SDS011;3067;49.470;10.394;2022-07-01T12:03:36;3.73;;;3.47;;
6077;SDS011;3067;49.470;10.394;2022-07-01T12:06:04;3.80;;;3.60;;
6077;SDS011;3067;49.470;10.394;2022-07-01T12:08:31;3.70;;;3.50;;
6077;SDS011;3067;49.470;10.394;2022-07-01T12:11:00;3.30;;;3.17;;
6077;SDS011;3067;49.470;10.394;2022-07-01T12:13:28;6.33;;;3.30;;
6077;SDS011;3067;49.470;10.394;2022-07-01T12:16:05;2.80;;;2.70;;
6077;SDS011;3067;49.470;10.394;2022-07-01T12:18:32;3.13;;;2.93;;
6077;SDS011;3067;49.470;10.394;2022-07-01T12:21:00;2.80;;;2.50;;
6077;SDS011;3067;49.470;10.394;2022-07-01T12:23:27;3.17;;;2.97;;
6077;SDS011;3067;49.470;10.394;2022-07-01T12:25:55;3.43;;;3.07;;
6077;SDS011;3067;49.470;10.394;2022-07-01T12:28:28;4.70;;;3.10;;
6077;SDS011;3067;49.470;10.394;2022-07-01T12:30:59;3.37;;;3.20;;
6077;SDS011;3067;49.470;10.394;2022-07-01T12:33:27;3.97;;;3.67;;
6077;SDS011;3067;49.470;10.394;2022-07-01T12:35:54;3.17;;;2.97;;
6077;SDS011;3067;49.470;10.394;2022-07-01T12:38:21;2.70;;;2.50;;
6077;SDS011;3067;49.470;10.394;2022-07-01T12:40:49;3.27;;;3.07;;
6077;SDS011;3067;49.470;10.394;2022-07-01T12:43:23;3.50;;;3.20;;
6077;SDS011;3067;49.470;10.394;2022-07-01T12:45:55;2.83;;;2.73;;
6077;SDS011;3067;49.470;10.394;2022-07-01T12:48:22;3.40;;;3.20;;
6077;SDS011;3067;49.470;10.394;2022-07-01T12:50:51;2.60;;;2.50;;
6077;SDS011;3067;49.470;10.394;2022-07-01T12:53:19;3.13;;;2.93;;
6077;SDS011;3067;49.470;10.394;2022-07-01T12:55:47;3.43;;;2.77;;
6077;SDS011;3067;49.470;10.394;2022-07-01T12:58:15;3.27;;;3.00;;
6077;SDS011;3067;49.470;10.394;2022-07-01T13:00:43;3.30;;;3.20;;
6077;SDS011;3067;49.470;10.394;2022-07-01T13:03:12;3.30;;;3.20;;
6077;SDS011;3067;49.470;10.394;2022-07-01T13:05:39;3.20;;;3.00;;
6077;SDS011;3067;49.470;10.394;2022-07-01T13:08:08;4.20;;;3.40;;
6077;SDS011;3067;49.470;10.394;2022-07-01T13:10:35;3.13;;;3.03;;
6077;SDS011;3067;49.470;10.394;2022-07-01T13:13:03;3.33;;;3.20;;
6077;SDS011;3067;49.470;10.394;2022-07-01T13:15:31;3.37;;;3.23;;
6077;SDS011;3067;49.470;10.394;2022-07-01T13:17:59;3.90;;;3.60;;
6077;SDS011;3067;49.470;10.394;2022-07-01T13:20:28;3.10;;;3.00;;
6077;SDS011;3067;49.470;10.394;2022-07-01T13:22:55;3.33;;;3.17;;
6077;SDS011;3067;49.470;10.394;2022-07-01T13:25:23;3.10;;;2.97;;
6077;SDS011;3067;49.470;10.394;2022-07-01T13:27:50;3.70;;;3.40;;
6077;SDS011;3067;49.470;10.394;2022-07-01T13:30:18;3.53;;;3.43;;
6077;SDS011;3067;49.470;10.394;2022-07-01T13:32:45;4.83;;;3.60;;
6077;SDS011;3067;49.470;10.394;2022-07-01T13:35:13;4.80;;;3.73;;
6077;SDS011;3067;49.470;10.394;2022-07-01T13:37:42;3.83;;;3.53;;
6077;SDS011;3067;49.470;10.394;2022-07-01T13:40:09;2.80;;;2.70;;
6077;SDS011;3067;49.470;10.394;2022-07-01T13:42:37;2.87;;;2.67;;
6077;SDS011;3067;49.470;10.394;2022-07-01T13:45:05;4.37;;;2.90;;
6077;SDS011;3067;49.470;10.394;2022-07-01T13:47:32;2.83;;;2.63;;
6077;SDS011;3067;49.470;10.394;2022-07-01T13:50:00;2.87;;;2.77;;
6077;SDS011;3067;49.470;10.394;2022-07-01T13:52:27;3.07;;;2.77;;
6077;SDS011;3067;49.470;10.394;2022-07-01T13:54:56;3.00;;;2.73;;
6077;SDS011;3067;49.470;10.394;2022-07-01T13:57:24;3.27;;;3.07;;
6077;SDS011;3067;49.470;10.394;2022-07-01T13:59:51;3.10;;;2.87;;
6077;SDS011;3067;49.470;10.394;2022-07-01T14:02:18;3.20;;;3.00;;
6077;SDS011;3067;49.470;10.394;2022-07-01T14:04:46;3.47;;;3.20;;
6077;SDS011;3067;49.470;10.394;2022-07-01T14:07:13;4.23;;;2.97;;
6077;SDS011;3067;49.470;10.394;2022-07-01T14:09:41;2.50;;;2.40;;
6077;SDS011;3067;49.470;10.394;2022-07-01T14:12:10;3.03;;;2.83;;
6077;SDS011;3067;49.470;10.394;2022-07-01T14:14:40;2.97;;;2.77;;
6077;SDS011;3067;49.470;10.394;2022-07-01T14:17:07;2.90;;;2.80;;
6077;SDS011;3067;49.470;10.394;2022-07-01T14:19:34;3.10;;;2.90;;
6077;SDS011;3067;49.470;10.394;2022-07-01T14:22:02;2.53;;;2.43;;
6077;SDS011;3067;49.470;10.394;2022-07-01T14:24:29;2.57;;;2.43;;
6077;SDS011;3067;49.470;10.394;2022-07-01T14:26:57;2.27;;;2.07;;
6077;SDS011;3067;49.470;10.394;2022-07-01T14:29:25;2.80;;;2.33;;
6077;SDS011;3067;49.470;10.394;2022-07-01T14:31:53;2.50;;;2.40;;
6077;SDS011;3067;49.470;10.394;2022-07-01T14:34:20;2.70;;;2.17;;
6077;SDS011;3067;49.470;10.394;2022-07-01T14:36:47;2.50;;;2.40;;
6077;SDS011;3067;49.470;10.394;2022-07-01T14:39:15;2.63;;;2.47;;
6077;SDS011;3067;49.470;10.394;2022-07-01T14:41:42;4.07;;;2.73;;
6077;SDS011;3067;49.470;10.394;2022-07-01T14:44:14;2.60;;;2.50;;
6077;SDS011;3067;49.470;10.394;2022-07-01T14:46:43;3.47;;;3.00;;
6077;SDS011;3067;49.470;10.394;2022-07-01T14:49:11;2.87;;;2.70;;
6077;SDS011;3067;49.470;10.394;2022-07-01T14:51:40;2.50;;;2.40;;
6077;SDS011;3067;49.470;10.394;2022-07-01T14:54:08;2.63;;;2.53;;
6077;SDS011;3067;49.470;10.394;2022-07-01T14:56:36;2.60;;;2.50;;
6077;SDS011;3067;49.470;10.394;2022-07-01T14:59:04;3.23;;;3.03;;
6077;SDS011;3067;49.470;10.394;2022-07-01T15:01:31;3.10;;;2.80;;
6077;SDS011;3067;49.470;10.394;2022-07-01T15:04:00;3.13;;;2.90;;
6077;SDS011;3067;49.470;10.394;2022-07-01T15:06:27;3.40;;;3.20;;
6077;SDS011;3067;49.470;10.394;2022-07-01T15:08:55;3.10;;;2.90;;
6077;SDS011;3067;49.470;10.394;2022-07-01T15:11:22;2.30;;;2.10;;
6077;SDS011;3067;49.470;10.394;2022-07-01T15:13:49;2.30;;;2.20;;
6077;SDS011;3067;49.470;10.394;2022-07-01T15:16:17;2.97;;;2.70;;